sensor_id;sensor_type;location;lat;lon;timestamp;P1;durP1;ratioP1;P2;durP2;ratioP2
22421;SDS011;11378;51.642;7.668;2022-12-07T00:00:42;2.03;;;1.50;;
22421;SDS011;11378;51.642;7.668;2022-12-07T00:03:09;2.20;;;2.00;;
22421;SDS011;11378;51.642;7.668;2022-12-07T00:05:35;2.63;;;1.73;;
22421;SDS011;11378;51.642;7.668;2022-12-07T00:08:01;2.25;;;1.45;;
22421;SDS011;11378;51.642;7.668;2022-12-07T00:10:28;2.10;;;1.60;;
22421;SDS011;11378;51.642;7.668;2022-12-07T00:12:54;2.05;;;1.60;;
22421;SDS011;11378;51.642;7.668;2022-12-07T00:15:21;2.17;;;1.90;;
22421;SDS011;11378;51.642;7.668;2022-12-07T00:17:47;1.70;;;1.60;;
22421;SDS011;11378;51.642;7.668;2022-12-07T00:20:13;2.03;;;1.73;;
22421;SDS011;11378;51.642;7.668;2022-12-07T00:22:40;1.73;;;1.63;;
22421;SDS011;11378;51.642;7.668;2022-12-07T00:25:06;1.85;;;1.55;;
22421;SDS011;11378;51.642;7.668;2022-12-07T00:27:33;2.88;;;1.65;;
22421;SDS011;11378;51.642;7.668;2022-12-07T00:30:00;2.17;;;1.65;;
22421;SDS011;11378;51.642;7.668;2022-12-07T00:32:26;1.65;;;1.55;;
22421;SDS011;11378;51.642;7.668;2022-12-07T00:34:52;1.73;;;1.45;;
22421;SDS011;11378;51.642;7.668;2022-12-07T00:37:19;1.48;;;1.38;;
22421;SDS011;11378;51.642;7.668;2022-12-07T00:39:45;3.28;;;1.60;;
22421;SDS011;11378;51.642;7.668;2022-12-07T00:42:12;2.30;;;1.80;;
22421;SDS011;11378;51.642;7.668;2022-12-07T00:44:38;1.60;;;1.50;;
22421;SDS011;11378;51.642;7.668;2022-12-07T00:47:05;1.95;;;1.60;;
22421;SDS011;11378;51.642;7.668;2022-12-07T00:49:31;1.58;;;1.42;;
22421;SDS011;11378;51.642;7.668;2022-12-07T00:51:57;1.40;;;1.30;;
22421;SDS011;11378;51.642;7.668;2022-12-07T00:54:24;1.70;;;1.60;;
22421;SDS011;11378;51.642;7.668;2022-12-07T00:56:50;1.95;;;1.60;;
22421;SDS011;11378;51.642;7.668;2022-12-07T00:59:17;2.42;;;1.73;;
22421;SDS011;11378;51.642;7.668;2022-12-07T01:01:43;1.73;;;1.27;;
22421;SDS011;11378;51.642;7.668;2022-12-07T01:04:10;1.40;;;1.30;;
22421;SDS011;11378;51.642;7.668;2022-12-07T01:06:36;1.60;;;1.50;;
22421;SDS011;11378;51.642;7.668;2022-12-07T01:09:02;1.75;;;1.60;;
22421;SDS011;11378;51.642;7.668;2022-12-07T01:11:30;1.60;;;1.50;;
22421;SDS011;11378;51.642;7.668;2022-12-07T01:13:57;1.92;;;1.40;;
22421;SDS011;11378;51.642;7.668;2022-12-07T01:16:25;1.63;;;1.50;;
22421;SDS011;11378;51.642;7.668;2022-12-07T01:18:53;1.48;;;1.38;;
22421;SDS011;11378;51.642;7.668;2022-12-07T01:21:20;2.55;;;1.70;;
22421;SDS011;11378;51.642;7.668;2022-12-07T01:23:47;2.47;;;1.45;;
22421;SDS011;11378;51.642;7.668;2022-12-07T01:26:15;1.48;;;1.30;;
22421;SDS011;11378;51.642;7.668;2022-12-07T01:28:41;2.65;;;1.63;;
22421;SDS011;11378;51.642;7.668;2022-12-07T01:31:12;2.00;;;1.60;;
22421;SDS011;11378;51.642;7.668;2022-12-07T01:33:40;1.40;;;1.30;;
22421;SDS011;11378;51.642;7.668;2022-12-07T01:36:08;1.95;;;1.40;;
22421;SDS011;11378;51.642;7.668;2022-12-07T01:38:34;2.05;;;1.55;;
22421;SDS011;11378;51.642;7.668;2022-12-07T01:41:01;1.63;;;1.40;;
22421;SDS011;11378;51.642;7.668;2022-12-07T01:43:28;1.92;;;1.50;;
22421;SDS011;11378;51.642;7.668;2022-12-07T01:45:55;1.92;;;1.52;;
22421;SDS011;11378;51.642;7.668;2022-12-07T01:48:24;2.03;;;1.10;;
22421;SDS011;11378;51.642;7.668;2022-12-07T01:50:50;1.65;;;1.25;;
22421;SDS011;11378;51.642;7.668;2022-12-07T01:53:18;2.05;;;1.50;;
22421;SDS011;11378;51.642;7.668;2022-12-07T01:55:45;2.53;;;1.52;;
22421;SDS011;11378;51.642;7.668;2022-12-07T01:58:14;1.30;;;1.20;;
22421;SDS011;11378;51.642;7.668;2022-12-07T02:00:41;2.58;;;1.45;;
22421;SDS011;11378;51.642;7.668;2022-12-07T02:03:13;1.40;;;1.30;;
22421;SDS011;11378;51.642;7.668;2022-12-07T02:05:41;1.70;;;1.58;;
22421;SDS011;11378;51.642;7.668;2022-12-07T02:08:07;1.42;;;1.10;;
22421;SDS011;11378;51.642;7.668;2022-12-07T02:10:34;1.23;;;1.13;;
22421;SDS011;11378;51.642;7.668;2022-12-07T02:13:05;1.48;;;1.38;;
22421;SDS011;11378;51.642;7.668;2022-12-07T02:18:09;1.30;;;1.20;;
22421;SDS011;11378;51.642;7.668;2022-12-07T02:28:56;1.02;;;1.00;;
22421;SDS011;11378;51.642;7.668;2022-12-07T02:31:27;1.50;;;1.30;;
22421;SDS011;11378;51.642;7.668;2022-12-07T02:33:57;1.75;;;1.20;;
22421;SDS011;11378;51.642;7.668;2022-12-07T02:36:27;1.42;;;1.20;;
22421;SDS011;11378;51.642;7.668;2022-12-07T02:38:58;1.30;;;1.20;;
22421;SDS011;11378;51.642;7.668;2022-12-07T02:41:27;1.38;;;1.27;;
22421;SDS011;11378;51.642;7.668;2022-12-07T02:43:59;1.35;;;1.25;;
22421;SDS011;11378;51.642;7.668;2022-12-07T02:46:33;0.95;;;0.95;;
22421;SDS011;11378;51.642;7.668;2022-12-07T02:49:01;1.40;;;1.30;;
22421;SDS011;11378;51.642;7.668;2022-12-07T02:51:32;1.85;;;1.50;;
22421;SDS011;11378;51.642;7.668;2022-12-07T02:53:58;1.20;;;1.10;;
22421;SDS011;11378;51.642;7.668;2022-12-07T03:01:37;1.27;;;1.17;;
22421;SDS011;11378;51.642;7.668;2022-12-07T03:06:56;1.73;;;1.55;;
22421;SDS011;11378;51.642;7.668;2022-12-07T03:09:31;1.15;;;1.08;;
22421;SDS011;11378;51.642;7.668;2022-12-07T03:12:08;1.60;;;1.30;;
22421;SDS011;11378;51.642;7.668;2022-12-07T03:14:38;1.50;;;1.30;;
22421;SDS011;11378;51.642;7.668;2022-12-07T03:17:10;1.23;;;1.13;;
22421;SDS011;11378;51.642;7.668;2022-12-07T03:19:38;1.30;;;1.20;;
22421;SDS011;11378;51.642;7.668;2022-12-07T03:22:07;1.30;;;1.20;;
22421;SDS011;11378;51.642;7.668;2022-12-07T03:24:48;1.30;;;1.20;;
22421;SDS011;11378;51.642;7.668;2022-12-07T03:27:24;1.42;;;1.27;;
22421;SDS011;11378;51.642;7.668;2022-12-07T03:29:59;1.35;;;1.20;;
22421;SDS011;11378;51.642;7.668;2022-12-07T03:32:30;1.55;;;1.20;;
22421;SDS011;11378;51.642;7.668;2022-12-07T03:35:41;1.70;;;1.23;;
22421;SDS011;11378;51.642;7.668;2022-12-07T03:42:49;1.17;;;1.08;;
22421;SDS011;11378;51.642;7.668;2022-12-07T03:45:16;1.30;;;1.20;;
22421;SDS011;11378;51.642;7.668;2022-12-07T03:47:46;1.20;;;1.10;;
22421;SDS011;11378;51.642;7.668;2022-12-07T03:50:28;1.73;;;1.30;;
22421;SDS011;11378;51.642;7.668;2022-12-07T03:52:56;1.30;;;1.20;;
22421;SDS011;11378;51.642;7.668;2022-12-07T03:55:30;1.15;;;1.05;;
22421;SDS011;11378;51.642;7.668;2022-12-07T03:58:16;1.23;;;1.00;;
22421;SDS011;11378;51.642;7.668;2022-12-07T04:00:43;1.38;;;1.25;;
22421;SDS011;11378;51.642;7.668;2022-12-07T04:03:10;1.40;;;1.30;;
22421;SDS011;11378;51.642;7.668;2022-12-07T04:05:37;1.23;;;1.13;;
22421;SDS011;11378;51.642;7.668;2022-12-07T04:08:04;2.28;;;1.20;;
22421;SDS011;11378;51.642;7.668;2022-12-07T04:10:30;1.17;;;1.08;;
22421;SDS011;11378;51.642;7.668;2022-12-07T04:12:57;1.10;;;1.00;;
22421;SDS011;11378;51.642;7.668;2022-12-07T04:15:23;1.63;;;1.08;;
22421;SDS011;11378;51.642;7.668;2022-12-07T04:17:49;1.30;;;1.20;;
22421;SDS011;11378;51.642;7.668;2022-12-07T04:20:16;1.02;;;1.02;;
22421;SDS011;11378;51.642;7.668;2022-12-07T04:22:42;1.25;;;1.13;;
22421;SDS011;11378;51.642;7.668;2022-12-07T04:25:09;1.30;;;1.20;;
22421;SDS011;11378;51.642;7.668;2022-12-07T04:27:35;1.20;;;1.10;;
22421;SDS011;11378;51.642;7.668;2022-12-07T04:30:02;1.20;;;1.05;;
22421;SDS011;11378;51.642;7.668;2022-12-07T04:32:28;1.33;;;1.23;;
22421;SDS011;11378;51.642;7.668;2022-12-07T04:34:55;1.27;;;1.17;;
22421;SDS011;11378;51.642;7.668;2022-12-07T04:37:22;1.38;;;1.27;;
22421;SDS011;11378;51.642;7.668;2022-12-07T04:39:48;1.00;;;1.00;;
22421;SDS011;11378;51.642;7.668;2022-12-07T04:42:15;1.20;;;1.10;;
22421;SDS011;11378;51.642;7.668;2022-12-07T04:44:41;2.05;;;1.30;;
22421;SDS011;11378;51.642;7.668;2022-12-07T04:47:07;1.30;;;1.20;;
22421;SDS011;11378;51.642;7.668;2022-12-07T04:49:34;1.15;;;1.05;;
22421;SDS011;11378;51.642;7.668;2022-12-07T04:52:00;1.00;;;0.98;;
22421;SDS011;11378;51.642;7.668;2022-12-07T04:54:26;1.20;;;1.10;;
22421;SDS011;11378;51.642;7.668;2022-12-07T04:56:53;1.42;;;1.13;;
22421;SDS011;11378;51.642;7.668;2022-12-07T04:59:19;1.30;;;1.20;;
22421;SDS011;11378;51.642;7.668;2022-12-07T05:01:46;1.40;;;1.30;;
22421;SDS011;11378;51.642;7.668;2022-12-07T05:04:12;1.13;;;1.02;;
22421;SDS011;11378;51.642;7.668;2022-12-07T05:06:41;1.30;;;1.20;;
22421;SDS011;11378;51.642;7.668;2022-12-07T05:09:07;1.30;;;1.20;;
22421;SDS011;11378;51.642;7.668;2022-12-07T05:11:34;1.10;;;1.00;;
22421;SDS011;11378;51.642;7.668;2022-12-07T05:14:17;1.38;;;1.20;;
22421;SDS011;11378;51.642;7.668;2022-12-07T05:16:45;1.30;;;1.20;;
22421;SDS011;11378;51.642;7.668;2022-12-07T05:19:12;1.27;;;1.17;;
22421;SDS011;11378;51.642;7.668;2022-12-07T05:21:38;1.00;;;1.00;;
22421;SDS011;11378;51.642;7.668;2022-12-07T05:24:05;1.38;;;1.27;;
22421;SDS011;11378;51.642;7.668;2022-12-07T05:26:32;1.30;;;1.20;;
22421;SDS011;11378;51.642;7.668;2022-12-07T05:28:58;1.23;;;1.08;;
22421;SDS011;11378;51.642;7.668;2022-12-07T05:31:25;1.60;;;1.38;;
22421;SDS011;11378;51.642;7.668;2022-12-07T05:33:51;1.10;;;1.00;;
22421;SDS011;11378;51.642;7.668;2022-12-07T05:36:18;1.23;;;1.10;;
22421;SDS011;11378;51.642;7.668;2022-12-07T05:38:44;1.10;;;1.00;;
22421;SDS011;11378;51.642;7.668;2022-12-07T05:41:15;1.15;;;1.05;;
22421;SDS011;11378;51.642;7.668;2022-12-07T05:44:00;1.10;;;1.00;;
22421;SDS011;11378;51.642;7.668;2022-12-07T05:46:27;1.65;;;0.90;;
22421;SDS011;11378;51.642;7.668;2022-12-07T05:48:53;1.02;;;1.00;;
22421;SDS011;11378;51.642;7.668;2022-12-07T05:51:19;1.30;;;1.20;;
22421;SDS011;11378;51.642;7.668;2022-12-07T05:53:46;1.20;;;1.10;;
22421;SDS011;11378;51.642;7.668;2022-12-07T05:56:12;1.17;;;1.08;;
22421;SDS011;11378;51.642;7.668;2022-12-07T05:58:39;1.35;;;1.10;;
22421;SDS011;11378;51.642;7.668;2022-12-07T06:01:26;1.45;;;1.35;;
22421;SDS011;11378;51.642;7.668;2022-12-07T06:03:52;1.50;;;1.30;;
22421;SDS011;11378;51.642;7.668;2022-12-07T06:06:18;1.35;;;1.20;;
22421;SDS011;11378;51.642;7.668;2022-12-07T06:08:44;1.98;;;1.40;;
22421;SDS011;11378;51.642;7.668;2022-12-07T06:11:11;1.63;;;0.95;;
22421;SDS011;11378;51.642;7.668;2022-12-07T06:13:56;1.52;;;1.42;;
22421;SDS011;11378;51.642;7.668;2022-12-07T06:16:22;1.33;;;1.23;;
22421;SDS011;11378;51.642;7.668;2022-12-07T06:18:48;1.30;;;1.20;;
22421;SDS011;11378;51.642;7.668;2022-12-07T06:21:15;2.78;;;1.20;;
22421;SDS011;11378;51.642;7.668;2022-12-07T06:23:41;1.80;;;1.33;;
22421;SDS011;11378;51.642;7.668;2022-12-07T06:26:07;1.50;;;1.33;;
22421;SDS011;11378;51.642;7.668;2022-12-07T06:28:34;1.98;;;1.20;;
22421;SDS011;11378;51.642;7.668;2022-12-07T06:31:01;1.52;;;0.90;;
22421;SDS011;11378;51.642;7.668;2022-12-07T06:33:27;1.55;;;1.13;;
22421;SDS011;11378;51.642;7.668;2022-12-07T06:35:54;1.17;;;1.10;;
22421;SDS011;11378;51.642;7.668;2022-12-07T06:38:20;1.75;;;1.00;;
22421;SDS011;11378;51.642;7.668;2022-12-07T06:40:47;3.15;;;1.23;;
22421;SDS011;11378;51.642;7.668;2022-12-07T06:43:13;1.73;;;0.82;;
22421;SDS011;11378;51.642;7.668;2022-12-07T06:45:40;1.58;;;1.10;;
22421;SDS011;11378;51.642;7.668;2022-12-07T06:48:06;1.42;;;1.00;;
22421;SDS011;11378;51.642;7.668;2022-12-07T06:50:33;1.30;;;1.20;;
22421;SDS011;11378;51.642;7.668;2022-12-07T06:52:59;1.35;;;1.25;;
22421;SDS011;11378;51.642;7.668;2022-12-07T06:55:26;2.13;;;1.00;;
22421;SDS011;11378;51.642;7.668;2022-12-07T06:57:52;0.90;;;0.88;;
22421;SDS011;11378;51.642;7.668;2022-12-07T07:00:19;1.23;;;1.13;;
22421;SDS011;11378;51.642;7.668;2022-12-07T07:02:45;1.52;;;1.10;;
22421;SDS011;11378;51.642;7.668;2022-12-07T07:05:11;1.15;;;1.00;;
22421;SDS011;11378;51.642;7.668;2022-12-07T07:07:38;1.23;;;1.08;;
22421;SDS011;11378;51.642;7.668;2022-12-07T07:10:04;1.13;;;0.98;;
22421;SDS011;11378;51.642;7.668;2022-12-07T07:12:31;1.10;;;1.00;;
22421;SDS011;11378;51.642;7.668;2022-12-07T07:14:57;2.33;;;0.90;;
22421;SDS011;11378;51.642;7.668;2022-12-07T07:17:23;1.10;;;0.90;;
22421;SDS011;11378;51.642;7.668;2022-12-07T07:19:50;1.00;;;0.90;;
22421;SDS011;11378;51.642;7.668;2022-12-07T07:22:16;1.17;;;1.08;;
22421;SDS011;11378;51.642;7.668;2022-12-07T07:24:43;0.98;;;0.88;;
22421;SDS011;11378;51.642;7.668;2022-12-07T07:27:09;1.00;;;0.93;;
22421;SDS011;11378;51.642;7.668;2022-12-07T07:29:35;1.40;;;1.10;;
22421;SDS011;11378;51.642;7.668;2022-12-07T07:32:02;1.42;;;1.17;;
22421;SDS011;11378;51.642;7.668;2022-12-07T07:34:28;1.45;;;1.10;;
22421;SDS011;11378;51.642;7.668;2022-12-07T07:36:54;1.58;;;1.00;;
22421;SDS011;11378;51.642;7.668;2022-12-07T07:39:21;1.00;;;0.90;;
22421;SDS011;11378;51.642;7.668;2022-12-07T07:41:47;0.90;;;0.90;;
22421;SDS011;11378;51.642;7.668;2022-12-07T07:44:23;1.10;;;1.00;;
22421;SDS011;11378;51.642;7.668;2022-12-07T07:46:49;1.40;;;1.20;;
22421;SDS011;11378;51.642;7.668;2022-12-07T07:49:15;1.92;;;1.00;;
22421;SDS011;11378;51.642;7.668;2022-12-07T07:51:42;1.27;;;1.08;;
22421;SDS011;11378;51.642;7.668;2022-12-07T07:54:08;1.40;;;1.10;;
22421;SDS011;11378;51.642;7.668;2022-12-07T07:56:34;2.55;;;1.20;;
22421;SDS011;11378;51.642;7.668;2022-12-07T07:59:01;1.50;;;1.00;;
22421;SDS011;11378;51.642;7.668;2022-12-07T08:01:27;1.73;;;1.15;;
22421;SDS011;11378;51.642;7.668;2022-12-07T08:03:54;1.30;;;0.93;;
22421;SDS011;11378;51.642;7.668;2022-12-07T08:06:20;1.15;;;1.08;;
22421;SDS011;11378;51.642;7.668;2022-12-07T08:08:46;1.52;;;1.10;;
22421;SDS011;11378;51.642;7.668;2022-12-07T08:11:13;1.80;;;1.40;;
22421;SDS011;11378;51.642;7.668;2022-12-07T08:13:39;1.67;;;1.40;;
22421;SDS011;11378;51.642;7.668;2022-12-07T08:16:06;2.30;;;1.10;;
22421;SDS011;11378;51.642;7.668;2022-12-07T08:18:37;1.30;;;1.20;;
22421;SDS011;11378;51.642;7.668;2022-12-07T08:21:03;1.20;;;1.10;;
22421;SDS011;11378;51.642;7.668;2022-12-07T08:23:30;1.60;;;1.15;;
22421;SDS011;11378;51.642;7.668;2022-12-07T08:26:00;1.48;;;1.10;;
22421;SDS011;11378;51.642;7.668;2022-12-07T08:28:26;1.77;;;1.33;;
22421;SDS011;11378;51.642;7.668;2022-12-07T08:30:57;1.30;;;1.20;;
22421;SDS011;11378;51.642;7.668;2022-12-07T08:33:24;1.30;;;1.20;;
22421;SDS011;11378;51.642;7.668;2022-12-07T08:35:51;1.27;;;1.10;;
22421;SDS011;11378;51.642;7.668;2022-12-07T08:38:17;1.38;;;1.15;;
22421;SDS011;11378;51.642;7.668;2022-12-07T08:40:43;2.92;;;1.23;;
22421;SDS011;11378;51.642;7.668;2022-12-07T08:43:10;1.63;;;1.10;;
22421;SDS011;11378;51.642;7.668;2022-12-07T08:45:36;1.40;;;1.25;;
22421;SDS011;11378;51.642;7.668;2022-12-07T08:48:06;1.50;;;0.98;;
22421;SDS011;11378;51.642;7.668;2022-12-07T08:50:34;1.75;;;1.30;;
22421;SDS011;11378;51.642;7.668;2022-12-07T08:53:01;1.58;;;1.35;;
22421;SDS011;11378;51.642;7.668;2022-12-07T08:55:28;2.75;;;1.48;;
22421;SDS011;11378;51.642;7.668;2022-12-07T08:57:55;1.80;;;1.33;;
22421;SDS011;11378;51.642;7.668;2022-12-07T09:00:23;1.38;;;1.10;;
22421;SDS011;11378;51.642;7.668;2022-12-07T09:02:49;1.55;;;1.30;;
22421;SDS011;11378;51.642;7.668;2022-12-07T09:05:16;1.23;;;1.10;;
22421;SDS011;11378;51.642;7.668;2022-12-07T09:07:43;1.45;;;1.13;;
22421;SDS011;11378;51.642;7.668;2022-12-07T09:10:11;1.52;;;1.30;;
22421;SDS011;11378;51.642;7.668;2022-12-07T09:12:37;3.50;;;1.20;;
22421;SDS011;11378;51.642;7.668;2022-12-07T09:15:04;1.38;;;1.10;;
22421;SDS011;11378;51.642;7.668;2022-12-07T09:17:33;1.50;;;0.98;;
22421;SDS011;11378;51.642;7.668;2022-12-07T09:20:01;1.63;;;1.05;;
22421;SDS011;11378;51.642;7.668;2022-12-07T09:22:29;2.33;;;1.30;;
22421;SDS011;11378;51.642;7.668;2022-12-07T09:24:58;1.92;;;1.20;;
22421;SDS011;11378;51.642;7.668;2022-12-07T09:27:25;1.98;;;1.30;;
22421;SDS011;11378;51.642;7.668;2022-12-07T09:29:51;1.05;;;0.90;;
22421;SDS011;11378;51.642;7.668;2022-12-07T09:32:18;1.42;;;1.10;;
22421;SDS011;11378;51.642;7.668;2022-12-07T09:34:44;2.13;;;1.10;;
22421;SDS011;11378;51.642;7.668;2022-12-07T09:37:11;1.63;;;1.17;;
22421;SDS011;11378;51.642;7.668;2022-12-07T09:39:38;1.17;;;1.08;;
22421;SDS011;11378;51.642;7.668;2022-12-07T09:42:04;1.65;;;1.10;;
22421;SDS011;11378;51.642;7.668;2022-12-07T09:44:32;1.48;;;1.00;;
22421;SDS011;11378;51.642;7.668;2022-12-07T09:46:59;1.88;;;1.20;;
22421;SDS011;11378;51.642;7.668;2022-12-07T09:49:25;2.10;;;1.20;;
22421;SDS011;11378;51.642;7.668;2022-12-07T09:52:04;2.65;;;1.20;;
22421;SDS011;11378;51.642;7.668;2022-12-07T09:54:44;1.40;;;1.30;;
22421;SDS011;11378;51.642;7.668;2022-12-07T09:57:11;1.73;;;1.10;;
22421;SDS011;11378;51.642;7.668;2022-12-07T09:59:38;3.10;;;1.05;;
22421;SDS011;11378;51.642;7.668;2022-12-07T10:04:50;1.20;;;0.93;;
22421;SDS011;11378;51.642;7.668;2022-12-07T10:07:17;1.13;;;1.00;;
22421;SDS011;11378;51.642;7.668;2022-12-07T10:09:44;1.52;;;1.00;;
22421;SDS011;11378;51.642;7.668;2022-12-07T10:12:11;1.10;;;1.05;;
22421;SDS011;11378;51.642;7.668;2022-12-07T10:14:40;1.25;;;1.08;;
22421;SDS011;11378;51.642;7.668;2022-12-07T10:17:27;1.35;;;1.00;;
22421;SDS011;11378;51.642;7.668;2022-12-07T10:23:00;1.15;;;1.00;;
22421;SDS011;11378;51.642;7.668;2022-12-07T10:25:28;1.45;;;1.10;;
22421;SDS011;11378;51.642;7.668;2022-12-07T10:27:57;1.15;;;1.05;;
22421;SDS011;11378;51.642;7.668;2022-12-07T10:30:24;1.08;;;1.02;;
22421;SDS011;11378;51.642;7.668;2022-12-07T10:32:51;1.85;;;1.45;;
22421;SDS011;11378;51.642;7.668;2022-12-07T10:37:43;1.95;;;1.27;;
22421;SDS011;11378;51.642;7.668;2022-12-07T11:01:56;1.52;;;0.90;;
22421;SDS011;11378;51.642;7.668;2022-12-07T11:07:21;1.20;;;1.10;;
22421;SDS011;11378;51.642;7.668;2022-12-07T11:17:26;1.55;;;1.00;;
22421;SDS011;11378;51.642;7.668;2022-12-07T11:20:05;2.20;;;1.02;;
22421;SDS011;11378;51.642;7.668;2022-12-07T11:22:45;1.10;;;0.90;;
22421;SDS011;11378;51.642;7.668;2022-12-07T11:28:00;1.65;;;1.20;;
22421;SDS011;11378;51.642;7.668;2022-12-07T11:32:59;1.10;;;1.00;;
22421;SDS011;11378;51.642;7.668;2022-12-07T11:35:39;1.00;;;0.90;;
22421;SDS011;11378;51.642;7.668;2022-12-07T11:38:11;1.95;;;1.00;;
22421;SDS011;11378;51.642;7.668;2022-12-07T11:40:38;1.00;;;0.90;;
22421;SDS011;11378;51.642;7.668;2022-12-07T11:43:23;1.35;;;0.90;;
22421;SDS011;11378;51.642;7.668;2022-12-07T11:45:52;1.20;;;1.00;;
22421;SDS011;11378;51.642;7.668;2022-12-07T11:48:33;1.33;;;0.90;;
22421;SDS011;11378;51.642;7.668;2022-12-07T11:51:00;0.80;;;0.80;;
22421;SDS011;11378;51.642;7.668;2022-12-07T11:53:32;1.17;;;1.08;;
22421;SDS011;11378;51.642;7.668;2022-12-07T12:03:50;0.90;;;0.85;;
22421;SDS011;11378;51.642;7.668;2022-12-07T12:06:17;0.98;;;0.88;;
22421;SDS011;11378;51.642;7.668;2022-12-07T12:08:46;1.05;;;0.95;;
22421;SDS011;11378;51.642;7.668;2022-12-07T12:11:30;1.05;;;0.95;;
22421;SDS011;11378;51.642;7.668;2022-12-07T12:14:05;1.08;;;0.90;;
22421;SDS011;11378;51.642;7.668;2022-12-07T12:16:48;1.00;;;0.70;;
22421;SDS011;11378;51.642;7.668;2022-12-07T12:21:44;1.35;;;1.25;;
22421;SDS011;11378;51.642;7.668;2022-12-07T12:24:22;3.85;;;1.10;;
22421;SDS011;11378;51.642;7.668;2022-12-07T12:26:50;1.25;;;1.15;;
22421;SDS011;11378;51.642;7.668;2022-12-07T12:29:19;0.93;;;0.90;;
22421;SDS011;11378;51.642;7.668;2022-12-07T12:32:04;1.05;;;0.85;;
22421;SDS011;11378;51.642;7.668;2022-12-07T12:42:52;1.05;;;0.95;;
22421;SDS011;11378;51.642;7.668;2022-12-07T12:45:20;0.75;;;0.75;;
22421;SDS011;11378;51.642;7.668;2022-12-07T12:52:51;0.93;;;0.93;;
22421;SDS011;11378;51.642;7.668;2022-12-07T12:55:19;1.55;;;0.80;;
22421;SDS011;11378;51.642;7.668;2022-12-07T12:57:47;1.75;;;1.00;;
22421;SDS011;11378;51.642;7.668;2022-12-07T13:02:50;1.13;;;0.93;;
22421;SDS011;11378;51.642;7.668;2022-12-07T13:05:19;1.05;;;0.90;;
22421;SDS011;11378;51.642;7.668;2022-12-07T13:18:23;0.70;;;0.70;;
22421;SDS011;11378;51.642;7.668;2022-12-07T13:20:52;1.00;;;0.90;;
22421;SDS011;11378;51.642;7.668;2022-12-07T13:23:51;0.70;;;0.70;;
22421;SDS011;11378;51.642;7.668;2022-12-07T13:28:41;1.42;;;0.90;;
22421;SDS011;11378;51.642;7.668;2022-12-07T13:33:44;1.55;;;0.85;;
22421;SDS011;11378;51.642;7.668;2022-12-07T13:36:16;1.10;;;0.90;;
22421;SDS011;11378;51.642;7.668;2022-12-07T13:38:57;0.90;;;0.90;;
22421;SDS011;11378;51.642;7.668;2022-12-07T13:41:24;0.95;;;0.70;;
22421;SDS011;11378;51.642;7.668;2022-12-07T13:43:52;1.55;;;0.90;;
22421;SDS011;11378;51.642;7.668;2022-12-07T13:49:26;1.05;;;0.90;;
22421;SDS011;11378;51.642;7.668;2022-12-07T13:51:53;1.23;;;0.80;;
22421;SDS011;11378;51.642;7.668;2022-12-07T13:54:21;0.82;;;0.80;;
22421;SDS011;11378;51.642;7.668;2022-12-07T13:56:51;0.95;;;0.80;;
22421;SDS011;11378;51.642;7.668;2022-12-07T13:59:21;1.02;;;0.73;;
22421;SDS011;11378;51.642;7.668;2022-12-07T14:01:49;3.58;;;0.82;;
22421;SDS011;11378;51.642;7.668;2022-12-07T14:06:49;0.90;;;0.90;;
22421;SDS011;11378;51.642;7.668;2022-12-07T14:09:20;2.45;;;0.80;;
22421;SDS011;11378;51.642;7.668;2022-12-07T14:11:47;0.73;;;0.73;;
22421;SDS011;11378;51.642;7.668;2022-12-07T14:14:19;1.50;;;0.85;;
22421;SDS011;11378;51.642;7.668;2022-12-07T14:16:54;0.70;;;0.70;;
22421;SDS011;11378;51.642;7.668;2022-12-07T14:22:07;1.33;;;1.13;;
22421;SDS011;11378;51.642;7.668;2022-12-07T14:24:41;1.75;;;0.95;;
22421;SDS011;11378;51.642;7.668;2022-12-07T14:27:16;1.40;;;0.98;;
22421;SDS011;11378;51.642;7.668;2022-12-07T14:29:43;1.80;;;0.90;;
22421;SDS011;11378;51.642;7.668;2022-12-07T14:32:21;1.30;;;0.75;;
22421;SDS011;11378;51.642;7.668;2022-12-07T14:37:15;1.27;;;1.17;;
22421;SDS011;11378;51.642;7.668;2022-12-07T14:39:42;1.77;;;1.20;;
22421;SDS011;11378;51.642;7.668;2022-12-07T14:42:08;3.08;;;1.30;;
22421;SDS011;11378;51.642;7.668;2022-12-07T14:44:35;1.58;;;1.20;;
22421;SDS011;11378;51.642;7.668;2022-12-07T14:47:01;3.13;;;1.10;;
22421;SDS011;11378;51.642;7.668;2022-12-07T14:49:27;2.90;;;1.17;;
22421;SDS011;11378;51.642;7.668;2022-12-07T14:51:54;1.50;;;1.05;;
22421;SDS011;11378;51.642;7.668;2022-12-07T14:54:20;2.70;;;1.27;;
22421;SDS011;11378;51.642;7.668;2022-12-07T14:56:48;1.52;;;1.00;;
22421;SDS011;11378;51.642;7.668;2022-12-07T14:59:16;4.10;;;1.35;;
22421;SDS011;11378;51.642;7.668;2022-12-07T15:01:44;2.65;;;1.30;;
22421;SDS011;11378;51.642;7.668;2022-12-07T15:04:10;2.80;;;1.23;;
22421;SDS011;11378;51.642;7.668;2022-12-07T15:06:36;2.95;;;1.30;;
22421;SDS011;11378;51.642;7.668;2022-12-07T15:09:03;4.43;;;1.25;;
22421;SDS011;11378;51.642;7.668;2022-12-07T15:11:30;2.72;;;1.23;;
22421;SDS011;11378;51.642;7.668;2022-12-07T15:13:56;3.25;;;1.50;;
22421;SDS011;11378;51.642;7.668;2022-12-07T15:16:37;1.58;;;1.10;;
22421;SDS011;11378;51.642;7.668;2022-12-07T15:19:05;3.38;;;1.23;;
22421;SDS011;11378;51.642;7.668;2022-12-07T15:21:32;5.43;;;1.15;;
22421;SDS011;11378;51.642;7.668;2022-12-07T15:23:58;3.20;;;1.17;;
22421;SDS011;11378;51.642;7.668;2022-12-07T15:26:24;2.60;;;1.17;;
22421;SDS011;11378;51.642;7.668;2022-12-07T15:28:52;2.08;;;1.10;;
22421;SDS011;11378;51.642;7.668;2022-12-07T15:31:19;2.08;;;1.50;;
22421;SDS011;11378;51.642;7.668;2022-12-07T15:33:45;2.50;;;1.40;;
22421;SDS011;11378;51.642;7.668;2022-12-07T15:36:19;3.70;;;1.30;;
22421;SDS011;11378;51.642;7.668;2022-12-07T15:38:46;2.55;;;1.27;;
22421;SDS011;11378;51.642;7.668;2022-12-07T15:41:13;3.10;;;1.27;;
22421;SDS011;11378;51.642;7.668;2022-12-07T15:43:39;1.30;;;1.05;;
22421;SDS011;11378;51.642;7.668;2022-12-07T15:46:34;1.83;;;1.20;;
22421;SDS011;11378;51.642;7.668;2022-12-07T15:49:00;1.30;;;1.00;;
22421;SDS011;11378;51.642;7.668;2022-12-07T15:51:27;4.50;;;1.52;;
22421;SDS011;11378;51.642;7.668;2022-12-07T15:53:53;2.25;;;1.20;;
22421;SDS011;11378;51.642;7.668;2022-12-07T15:56:20;2.80;;;1.40;;
22421;SDS011;11378;51.642;7.668;2022-12-07T15:58:46;2.78;;;1.30;;
22421;SDS011;11378;51.642;7.668;2022-12-07T16:01:13;5.05;;;1.42;;
22421;SDS011;11378;51.642;7.668;2022-12-07T16:03:40;1.52;;;1.35;;
22421;SDS011;11378;51.642;7.668;2022-12-07T16:06:06;2.45;;;1.30;;
22421;SDS011;11378;51.642;7.668;2022-12-07T16:08:33;4.35;;;1.35;;
22421;SDS011;11378;51.642;7.668;2022-12-07T16:10:59;2.65;;;1.17;;
22421;SDS011;11378;51.642;7.668;2022-12-07T16:13:26;3.60;;;1.48;;
22421;SDS011;11378;51.642;7.668;2022-12-07T16:15:52;2.85;;;1.63;;
22421;SDS011;11378;51.642;7.668;2022-12-07T16:18:18;1.67;;;1.50;;
22421;SDS011;11378;51.642;7.668;2022-12-07T16:20:47;2.95;;;1.40;;
22421;SDS011;11378;51.642;7.668;2022-12-07T16:23:14;1.20;;;1.10;;
22421;SDS011;11378;51.642;7.668;2022-12-07T16:25:40;1.98;;;1.30;;
22421;SDS011;11378;51.642;7.668;2022-12-07T16:28:07;2.00;;;1.20;;
22421;SDS011;11378;51.642;7.668;2022-12-07T16:30:33;4.28;;;1.50;;
22421;SDS011;11378;51.642;7.668;2022-12-07T16:33:00;2.05;;;1.50;;
22421;SDS011;11378;51.642;7.668;2022-12-07T16:35:26;3.42;;;1.10;;
22421;SDS011;11378;51.642;7.668;2022-12-07T16:37:53;4.60;;;1.75;;
22421;SDS011;11378;51.642;7.668;2022-12-07T16:40:19;2.10;;;1.30;;
22421;SDS011;11378;51.642;7.668;2022-12-07T16:42:46;5.80;;;1.50;;
22421;SDS011;11378;51.642;7.668;2022-12-07T16:45:12;5.07;;;1.55;;
22421;SDS011;11378;51.642;7.668;2022-12-07T16:47:39;2.28;;;1.25;;
22421;SDS011;11378;51.642;7.668;2022-12-07T16:50:06;1.85;;;1.33;;
22421;SDS011;11378;51.642;7.668;2022-12-07T16:52:33;1.80;;;1.30;;
22421;SDS011;11378;51.642;7.668;2022-12-07T16:54:59;3.97;;;1.42;;
22421;SDS011;11378;51.642;7.668;2022-12-07T16:57:26;1.50;;;1.20;;